Time;durP1;ratioP1;P1;durP2;ratioP2;P2;SDS_P1;SDS_P2;PMS_P1;PMS_P2;Temp;Humidity;BMP_temperature;BMP_pressure;BME280_temperature;BME280_humidity;BME280_pressure;Samples;Min_cycle;Max_cycle;Signal;HPM_P1;HPM_P2
2023/01/14 00:01:17;;;;;;;9.68;1.40;;;;;;;3.00;100.00;97640.78;4955998;28;20051;-65
2023/01/14 00:03:45;;;;;;;7.53;1.20;;;;;;;3.14;100.00;97638.19;4958686;28;20047;-64
2023/01/14 00:06:17;;;;;;;10.13;1.55;;;;;;;2.94;100.00;97638.88;4951656;28;20050;-64
2023/01/14 00:08:44;;;;;;;4.85;1.10;;;;;;;2.89;100.00;97644.00;4958077;28;20053;-65
2023/01/14 00:11:13;;;;;;;9.07;1.48;;;;;;;2.78;100.00;97656.06;4953717;28;20043;-63
2023/01/14 00:13:40;;;;;;;5.50;1.23;;;;;;;2.53;100.00;97653.81;4952082;28;20707;-62
2023/01/14 00:16:10;;;;;;;6.50;1.20;;;;;;;2.51;100.00;97654.00;4957451;28;20058;-62
2023/01/14 00:18:37;;;;;;;4.43;1.50;;;;;;;2.38;100.00;97649.38;4958085;28;20505;-62
2023/01/14 00:21:21;;;;;;;8.40;1.50;;;;;;;2.27;100.00;97657.91;4959150;28;20069;-62
2023/01/14 00:23:52;;;;;;;8.88;1.40;;;;;;;1.98;100.00;97649.03;4953851;28;20051;-62
2023/01/14 00:26:20;;;;;;;4.55;1.35;;;;;;;1.87;100.00;97648.47;4956291;28;20101;-62
2023/01/14 00:28:49;;;;;;;9.55;1.60;;;;;;;1.69;100.00;97646.22;4962675;28;20046;-63
2023/01/14 00:31:22;;;;;;;5.65;1.30;;;;;;;1.61;100.00;97647.16;4957043;28;20126;-62
2023/01/14 00:33:51;;;;;;;9.50;1.33;;;;;;;1.33;100.00;97658.53;4958052;28;20136;-62
2023/01/14 00:36:20;;;;;;;3.33;1.55;;;;;;;1.32;100.00;97658.72;4978933;28;20050;-62
2023/01/14 00:38:47;;;;;;;4.57;0.90;;;;;;;1.29;100.00;97659.94;4967811;28;20160;-62
2023/01/14 00:41:17;;;;;;;10.18;1.65;;;;;;;1.26;100.00;97646.94;4962339;28;20051;-62
2023/01/14 00:43:46;;;;;;;8.00;1.73;;;;;;;1.23;100.00;97649.97;4965252;28;20043;-62
2023/01/14 00:46:18;;;;;;;5.93;1.85;;;;;;;1.13;100.00;97659.09;4964985;28;20089;-62
2023/01/14 00:48:45;;;;;;;6.38;1.38;;;;;;;1.16;100.00;97650.72;4967808;28;20046;-61
2023/01/14 00:51:15;;;;;;;6.20;1.42;;;;;;;1.14;100.00;97655.41;4960037;28;20047;-62
2023/01/14 00:53:42;;;;;;;6.93;1.25;;;;;;;1.14;100.00;97658.06;4966390;28;20130;-62
2023/01/14 00:56:09;;;;;;;6.18;1.17;;;;;;;1.04;100.00;97654.88;4959861;28;20046;-61
2023/01/14 00:58:36;;;;;;;13.07;1.63;;;;;;;1.12;100.00;97661.94;4965076;28;20042;-62
2023/01/14 01:01:03;;;;;;;4.78;1.35;;;;;;;1.26;100.00;97666.44;4963236;28;20038;-62
2023/01/14 01:03:30;;;;;;;6.75;1.50;;;;;;;1.17;100.00;97663.03;4960015;28;20043;-63
2023/01/14 01:05:57;;;;;;;3.95;1.17;;;;;;;1.06;100.00;97663.50;4963916;28;20097;-62
2023/01/14 01:08:24;;;;;;;12.32;1.95;;;;;;;1.16;100.00;97664.06;4975326;28;20049;-62
2023/01/14 01:10:53;;;;;;;6.80;1.45;;;;;;;1.28;100.00;97668.91;4962807;28;20077;-62
2023/01/14 01:13:22;;;;;;;5.53;1.38;;;;;;;1.13;100.00;97669.75;4961660;28;20712;-62
2023/01/14 01:15:50;;;;;;;7.88;1.48;;;;;;;0.96;100.00;97674.44;4964006;28;20038;-62
2023/01/14 01:18:16;;;;;;;4.97;1.40;;;;;;;0.96;100.00;97670.94;4965865;28;20665;-63
2023/01/14 01:20:43;;;;;;;6.80;1.55;;;;;;;0.83;100.00;97672.41;4965090;28;20054;-65
2023/01/14 01:23:13;;;;;;;4.13;0.95;;;;;;;0.89;100.00;97671.66;4963933;28;20098;-64
2023/01/14 01:25:40;;;;;;;8.50;2.05;;;;;;;0.71;100.00;97663.19;4964530;28;20693;-63
2023/01/14 01:28:07;;;;;;;8.55;1.27;;;;;;;0.75;100.00;97665.31;4963425;28;20522;-64
2023/01/14 01:30:34;;;;;;;6.55;1.98;;;;;;;0.74;100.00;97668.16;4960971;28;20565;-64
2023/01/14 01:33:01;;;;;;;7.20;1.58;;;;;;;0.76;100.00;97674.97;4964507;28;21422;-64
2023/01/14 01:35:28;;;;;;;10.07;1.75;;;;;;;0.95;100.00;97680.78;4963986;28;20581;-64
2023/01/14 01:37:54;;;;;;;5.72;1.15;;;;;;;0.83;100.00;97684.91;4965737;28;20047;-63
2023/01/14 01:40:21;;;;;;;7.70;1.75;;;;;;;0.88;100.00;97687.84;4959140;28;20442;-64
2023/01/14 01:42:57;;;;;;;10.15;1.08;;;;;;;0.75;100.00;97688.47;4963034;28;20094;-63
2023/01/14 01:45:29;;;;;;;8.45;1.60;;;;;;;0.81;100.00;97689.59;4964618;28;20054;-64
2023/01/14 01:48:10;;;;;;;7.32;1.25;;;;;;;0.84;100.00;97684.72;4965187;28;20047;-64
2023/01/14 01:50:37;;;;;;;4.15;1.05;;;;;;;0.93;100.00;97685.47;4961785;28;20142;-64
2023/01/14 01:53:05;;;;;;;8.60;1.38;;;;;;;1.14;100.00;97684.75;4960178;28;20043;-64
2023/01/14 01:55:37;;;;;;;5.65;1.33;;;;;;;1.31;100.00;97681.91;4964749;28;20077;-64
2023/01/14 01:58:05;;;;;;;6.33;1.20;;;;;;;1.61;100.00;97681.88;4965271;28;20046;-64
2023/01/14 02:00:31;;;;;;;3.25;1.13;;;;;;;2.17;100.00;97677.75;4964301;28;20074;-64
2023/01/14 02:03:06;;;;;;;5.18;1.38;;;;;;;2.55;100.00;97678.53;4966359;28;20061;-64
2023/01/14 02:05:33;;;;;;;6.97;1.23;;;;;;;2.66;100.00;97683.34;4979996;28;20472;-64
2023/01/14 02:08:00;;;;;;;4.32;0.88;;;;;;;2.73;100.00;97689.56;4964169;28;20046;-64
2023/01/14 02:11:16;;;;;;;6.55;1.38;;;;;;;2.28;100.00;97680.97;4963804;28;20035;-64
2023/01/14 02:14:20;;;;;;;5.38;1.10;;;;;;;1.78;100.00;97679.81;4949968;28;20043;-64
2023/01/14 02:17:14;;;;;;;6.53;0.82;;;;;;;1.66;100.00;97676.78;4962355;28;20154;-64
2023/01/14 02:20:22;;;;;;;3.25;0.95;;;;;;;1.66;100.00;97676.78;4961912;28;20125;-64
2023/01/14 02:23:16;;;;;;;10.60;1.63;;;;;;;1.39;100.00;97681.81;4964003;28;20058;-64
2023/01/14 02:26:21;;;;;;;8.98;1.00;;;;;;;1.36;100.00;97682.16;4963004;28;20047;-64
2023/01/14 02:29:26;;;;;;;5.30;1.42;;;;;;;1.19;100.00;97678.88;4963110;28;20122;-64
2023/01/14 02:32:19;;;;;;;7.78;1.05;;;;;;;0.92;100.00;97683.00;4963832;28;20054;-64
2023/01/14 02:34:55;;;;;;;5.78;1.15;;;;;;;1.09;100.00;97683.63;4960544;28;20585;-63
2023/01/14 02:37:34;;;;;;;8.32;1.15;;;;;;;1.21;100.00;97679.50;4952323;28;20430;-64
2023/01/14 02:40:15;;;;;;;5.32;1.58;;;;;;;1.45;100.00;97676.72;4955742;28;20053;-64
2023/01/14 02:45:46;;;;;;;6.90;1.48;;;;;;;2.03;100.00;97673.31;4979831;28;20043;-65
2023/01/14 02:48:15;;;;;;;5.80;1.27;;;;;;;2.00;100.00;97671.84;4955472;28;20046;-64
2023/01/14 02:50:42;;;;;;;7.32;1.33;;;;;;;1.84;100.00;97669.41;4956070;28;20077;-64
2023/01/14 02:53:16;;;;;;;8.02;1.25;;;;;;;1.91;100.00;97673.78;4957686;28;20121;-64
2023/01/14 02:55:43;;;;;;;6.63;1.15;;;;;;;1.81;100.00;97671.41;4952585;28;20506;-64
2023/01/14 02:58:23;;;;;;;7.72;1.42;;;;;;;1.58;100.00;97671.56;4952775;28;20043;-65
2023/01/14 03:00:55;;;;;;;8.50;2.10;;;;;;;1.56;100.00;97685.09;4959395;28;20043;-64
2023/01/14 03:03:45;;;;;;;4.95;1.00;;;;;;;1.40;100.00;97691.47;4955660;28;20050;-64
2023/01/14 03:06:49;;;;;;;7.30;1.38;;;;;;;0.99;100.00;97682.06;4957853;28;20051;-64
2023/01/14 03:09:47;;;;;;;4.65;1.00;;;;;;;0.84;100.00;97666.06;4961645;28;20125;-64
2023/01/14 03:12:46;;;;;;;4.18;1.20;;;;;;;0.80;100.00;97658.63;4957362;28;20664;-64
2023/01/14 03:15:17;;;;;;;3.60;1.02;;;;;;;0.76;100.00;97653.66;4975855;28;20054;-65
2023/01/14 03:17:51;;;;;;;8.25;1.70;;;;;;;0.83;100.00;97645.75;4960757;28;20089;-64
2023/01/14 03:20:24;;;;;;;3.95;1.13;;;;;;;0.84;100.00;97650.06;4951665;28;20471;-64
2023/01/14 03:22:52;;;;;;;6.38;1.23;;;;;;;0.84;100.00;97646.56;4957323;28;20512;-64
2023/01/14 03:25:24;;;;;;;5.80;1.40;;;;;;;1.13;100.00;97644.91;4963821;28;20065;-64
2023/01/14 03:27:57;;;;;;;5.75;1.00;;;;;;;1.13;100.00;97645.75;4959759;28;20066;-64
2023/01/14 03:30:29;;;;;;;4.82;0.90;;;;;;;1.23;100.00;97641.97;4954332;28;20047;-65
2023/01/14 03:33:04;;;;;;;7.80;1.30;;;;;;;1.26;100.00;97639.75;4962672;28;20053;-65
2023/01/14 03:35:34;;;;;;;3.40;0.80;;;;;;;1.23;100.00;97633.97;4954859;28;20074;-64
2023/01/14 03:38:11;;;;;;;3.72;1.15;;;;;;;1.24;100.00;97628.47;4960986;28;20155;-65
2023/01/14 03:40:41;;;;;;;4.20;1.15;;;;;;;1.30;100.00;97630.38;4958883;28;20054;-65
2023/01/14 03:43:19;;;;;;;6.68;1.35;;;;;;;1.31;100.00;97623.19;4957001;28;20121;-65
2023/01/14 03:45:47;;;;;;;7.90;1.20;;;;;;;1.35;100.00;97627.16;4961922;28;20050;-65
2023/01/14 03:48:14;;;;;;;3.72;1.08;;;;;;;1.06;100.00;97623.50;4961836;28;20107;-65
2023/01/14 03:51:01;;;;;;;7.90;1.48;;;;;;;0.92;100.00;97621.66;4962363;28;20057;-65
2023/01/14 03:53:56;;;;;;;2.97;1.00;;;;;;;1.03;100.00;97615.84;4959089;28;20126;-65
2023/01/14 03:56:29;;;;;;;3.97;1.30;;;;;;;0.62;100.00;97606.47;4961084;28;20066;-64
2023/01/14 03:59:08;;;;;;;4.32;1.00;;;;;;;0.48;100.00;97608.94;4965064;28;20042;-65
2023/01/14 04:01:43;;;;;;;8.70;1.65;;;;;;;0.46;100.00;97610.13;4960980;28;20105;-65
2023/01/14 04:04:11;;;;;;;8.27;1.35;;;;;;;0.14;100.00;97606.75;4977026;28;20042;-64
2023/01/14 04:06:38;;;;;;;5.40;1.35;;;;;;;0.06;100.00;97605.81;4964177;28;20045;-63
2023/01/14 04:09:06;;;;;;;8.80;1.30;;;;;;;0.15;100.00;97608.41;4962579;28;20081;-64
2023/01/14 04:11:32;;;;;;;4.78;1.17;;;;;;;0.18;100.00;97611.53;4960369;28;20046;-64
2023/01/14 04:16:44;;;;;;;7.47;1.70;;;;;;;0.11;100.00;97598.09;4957216;28;20062;-64
2023/01/14 04:19:10;;;;;;;7.55;1.42;;;;;;;0.06;100.00;97604.97;4962147;28;20039;-64
2023/01/14 04:21:37;;;;;;;8.30;1.20;;;;;;;0.14;100.00;97596.09;4961295;28;20077;-64
2023/01/14 04:24:03;;;;;;;16.10;2.13;;;;;;;0.24;100.00;97597.50;4958444;28;20074;-64
2023/01/14 04:26:30;;;;;;;6.07;1.20;;;;;;;0.15;100.00;97584.44;4956920;28;20035;-64
2023/01/14 04:28:56;;;;;;;3.42;1.15;;;;;;;0.35;100.00;97582.09;4960181;28;20408;-64
2023/01/14 04:31:26;;;;;;;6.38;1.40;;;;;;;0.57;100.00;97592.88;4963173;28;20100;-64
2023/01/14 04:33:52;;;;;;;4.13;1.35;;;;;;;0.79;100.00;97593.81;4961139;28;20046;-64
2023/01/14 04:36:19;;;;;;;5.05;1.10;;;;;;;1.21;100.00;97593.34;4962446;28;20713;-64
2023/01/14 04:38:45;;;;;;;7.82;1.33;;;;;;;1.40;100.00;97582.06;4959100;28;20051;-64
2023/01/14 04:42:26;;;;;;;5.53;0.98;;;;;;;1.37;100.00;97582.41;4959064;28;20151;-64
2023/01/14 04:43:59;;;;;;;8.75;1.15;;;;;;;1.47;100.00;97579.47;4951147;28;20106;-64
2023/01/14 04:46:26;;;;;;;3.42;1.08;;;;;;;1.60;100.00;97576.13;4961911;28;20526;-64
2023/01/14 04:48:53;;;;;;;5.50;1.45;;;;;;;1.61;100.00;97569.75;4962056;28;20043;-64
2023/01/14 04:51:19;;;;;;;7.82;0.95;;;;;;;1.77;100.00;97576.69;4954220;28;20044;-65
2023/01/14 04:53:46;;;;;;;9.07;1.23;;;;;;;1.69;100.00;97569.66;4960126;28;20572;-65
2023/01/14 04:56:13;;;;;;;6.75;1.30;;;;;;;1.68;100.00;97565.31;4956677;28;20050;-64
2023/01/14 04:58:39;;;;;;;8.77;1.38;;;;;;;1.64;100.00;97564.06;4952148;28;20047;-64
2023/01/14 05:01:06;;;;;;;3.28;1.00;;;;;;;1.63;100.00;97554.41;4958165;28;20514;-64
2023/01/14 05:03:32;;;;;;;7.60;1.50;;;;;;;1.63;100.00;97554.41;4957766;28;20090;-65
2023/01/14 05:05:59;;;;;;;6.72;1.75;;;;;;;1.74;100.00;97562.91;4958702;28;20506;-64
2023/01/14 05:08:25;;;;;;;3.58;0.90;;;;;;;1.91;100.00;97556.28;4959202;28;20043;-64
2023/01/14 05:10:52;;;;;;;4.18;1.00;;;;;;;2.03;100.00;97569.13;4962797;28;20101;-63
2023/01/14 05:13:18;;;;;;;14.15;2.08;;;;;;;1.97;100.00;97564.53;4960641;28;20094;-64
2023/01/14 05:15:45;;;;;;;7.13;1.27;;;;;;;1.83;100.00;97569.78;4956418;28;20263;-64
2023/01/14 05:18:14;;;;;;;4.50;1.10;;;;;;;1.74;100.00;97569.09;4958737;28;20049;-63
2023/01/14 05:20:42;;;;;;;4.97;1.40;;;;;;;1.70;100.00;97570.47;4957913;28;20497;-64
2023/01/14 05:23:14;;;;;;;4.47;1.25;;;;;;;1.77;100.00;97567.88;4964129;28;20047;-64
2023/01/14 05:25:41;;;;;;;5.63;1.30;;;;;;;1.73;100.00;97561.25;4978359;28;20047;-64
2023/01/14 05:28:15;;;;;;;3.08;1.70;;;;;;;1.74;100.00;97560.25;4963561;28;20042;-64
2023/01/14 05:30:42;;;;;;;6.88;1.27;;;;;;;1.76;100.00;97556.34;4959955;28;20466;-64
2023/01/14 05:33:09;;;;;;;6.38;1.23;;;;;;;1.73;100.00;97553.25;4957383;28;20047;-64
2023/01/14 05:35:36;;;;;;;6.57;1.20;;;;;;;1.75;100.00;97545.88;4960690;28;20093;-64
2023/01/14 05:38:04;;;;;;;7.75;1.23;;;;;;;1.80;100.00;97535.44;4959669;28;20153;-64
2023/01/14 05:40:30;;;;;;;3.78;1.27;;;;;;;1.69;100.00;97531.44;4962643;28;20060;-64
2023/01/14 05:45:49;;;;;;;8.70;1.42;;;;;;;1.82;100.00;97525.41;4965073;28;20124;-65
2023/01/14 05:48:21;;;;;;;4.53;1.23;;;;;;;1.91;100.00;97526.06;4957781;28;20138;-64
2023/01/14 05:50:55;;;;;;;7.10;1.58;;;;;;;1.93;100.00;97526.72;4961786;28;20047;-64
2023/01/14 05:53:22;;;;;;;6.82;1.50;;;;;;;1.85;100.00;97519.69;4957498;28;20051;-64
2023/01/14 05:55:50;;;;;;;6.05;1.25;;;;;;;1.92;100.00;97523.22;4958119;28;20070;-64
2023/01/14 05:58:17;;;;;;;5.70;1.30;;;;;;;1.86;100.00;97524.00;4956087;28;20727;-64
2023/01/14 06:06:38;;;;;;;5.63;1.52;;;;;;;2.02;100.00;97508.69;4960191;28;20046;-64
2023/01/14 06:09:10;;;;;;;5.10;1.23;;;;;;;2.12;100.00;97506.53;4963317;28;20051;-64
2023/01/14 06:11:39;;;;;;;5.72;1.35;;;;;;;2.17;100.00;97511.28;4955873;28;20058;-65
2023/01/14 06:14:06;;;;;;;8.18;1.25;;;;;;;2.33;100.00;97515.53;4962327;28;20561;-63
2023/01/14 06:16:40;;;;;;;6.13;1.23;;;;;;;2.39;100.00;97517.41;4958421;28;20043;-63
2023/01/14 06:19:11;;;;;;;4.53;0.93;;;;;;;2.48;100.00;97510.06;4960775;28;20043;-64
2023/01/14 06:21:38;;;;;;;;;;;;;;;2.44;100.00;97512.28;4961893;28;20039;-64
2023/01/14 06:24:06;;;;;;;9.77;1.95;;;;;;;2.44;100.00;97501.59;4961890;28;19944;-64
2023/01/14 06:26:34;;;;;;;6.93;1.10;;;;;;;2.43;100.00;97505.31;4963857;28;20066;-63
2023/01/14 06:29:04;;;;;;;6.20;1.15;;;;;;;2.37;100.00;97495.41;4960274;28;20470;-63
2023/01/14 06:31:30;;;;;;;5.22;1.08;;;;;;;2.34;100.00;97491.28;4961355;28;20125;-64
2023/01/14 06:33:57;;;;;;;5.18;1.40;;;;;;;2.53;100.00;97499.59;4962803;28;20042;-63
2023/01/14 06:36:25;;;;;;;7.63;0.98;;;;;;;2.55;100.00;97492.19;4965336;28;20035;-63
2023/01/14 06:38:51;;;;;;;5.88;1.05;;;;;;;2.54;100.00;97500.44;4965510;28;20047;-63
2023/01/14 06:41:18;;;;;;;4.45;1.08;;;;;;;2.52;100.00;97479.25;4964679;28;20039;-63
2023/01/14 06:43:44;;;;;;;3.53;1.08;;;;;;;2.62;100.00;97486.09;4963924;28;20039;-63
2023/01/14 06:46:12;;;;;;;5.75;1.00;;;;;;;2.55;100.00;97488.72;4965896;28;20117;-61
2023/01/14 06:48:40;;;;;;;2.90;1.08;;;;;;;2.58;100.00;97483.78;4966109;28;20073;-63
2023/01/14 06:51:09;;;;;;;4.03;1.00;;;;;;;2.65;100.00;97483.81;4961935;28;20039;-63
2023/01/14 06:53:36;;;;;;;4.95;1.05;;;;;;;2.68;100.00;97480.75;4964370;28;20042;-63
2023/01/14 06:56:04;;;;;;;4.93;1.05;;;;;;;2.82;100.00;97470.97;4965994;28;20413;-63
2023/01/14 06:58:31;;;;;;;6.68;1.15;;;;;;;2.85;100.00;97467.06;4960912;28;20045;-63
2023/01/14 07:00:59;;;;;;;4.68;0.95;;;;;;;2.93;100.00;97469.56;4964962;28;20391;-63
2023/01/14 07:03:26;;;;;;;5.88;0.95;;;;;;;2.87;100.00;97465.00;4963222;28;20039;-63
2023/01/14 07:05:52;;;;;;;8.45;1.42;;;;;;;2.95;100.00;97466.69;4965041;28;20051;-63
2023/01/14 07:08:20;;;;;;;6.30;1.50;;;;;;;3.01;100.00;97457.84;4965319;28;20057;-63
2023/01/14 07:10:50;;;;;;;5.55;1.50;;;;;;;3.01;100.00;97452.50;4964945;28;20113;-62
2023/01/14 07:13:18;;;;;;;6.97;1.38;;;;;;;2.97;100.00;97443.22;4964721;28;20526;-63
2023/01/14 07:15:45;;;;;;;20.30;2.45;;;;;;;3.02;100.00;97440.75;4962388;28;20572;-63
2023/01/14 07:18:11;;;;;;;7.30;1.60;;;;;;;2.97;100.00;97438.72;4960025;28;20046;-63
2023/01/14 07:20:39;;;;;;;10.38;1.42;;;;;;;3.01;100.00;97433.78;4960854;28;20161;-62
2023/01/14 07:23:05;;;;;;;9.40;1.60;;;;;;;3.07;100.00;97434.81;4962384;28;20109;-63
2023/01/14 07:25:32;;;;;;;9.32;1.48;;;;;;;3.10;100.00;97437.09;4960537;28;20219;-63
2023/01/14 07:27:59;;;;;;;5.45;1.38;;;;;;;3.16;100.00;97430.13;4962434;28;20065;-62
2023/01/14 07:30:25;;;;;;;6.88;1.40;;;;;;;3.16;100.00;97430.94;4960234;28;20049;-61
2023/01/14 07:32:51;;;;;;;4.07;1.40;;;;;;;3.25;100.00;97418.19;4961940;28;20049;-61
2023/01/14 07:35:18;;;;;;;6.57;1.30;;;;;;;3.32;100.00;97412.84;4961291;28;20316;-61
2023/01/14 07:37:45;;;;;;;9.27;1.55;;;;;;;3.44;100.00;97397.84;4958731;28;20106;-60
2023/01/14 07:40:12;;;;;;;5.05;1.60;;;;;;;3.44;100.00;97399.66;4963796;28;20383;-61
2023/01/14 07:42:38;;;;;;;7.80;1.58;;;;;;;3.47;100.00;97388.56;4964090;28;20351;-61
2023/01/14 07:45:05;;;;;;;7.95;1.55;;;;;;;3.45;100.00;97379.91;4964994;28;20042;-61
2023/01/14 07:47:32;;;;;;;6.80;1.92;;;;;;;3.54;100.00;97388.56;4964209;28;20051;-62
2023/01/14 07:49:58;;;;;;;10.27;2.42;;;;;;;3.56;100.00;97390.00;4962568;28;20540;-61
2023/01/14 07:52:25;;;;;;;10.20;1.83;;;;;;;3.60;100.00;97388.56;4955295;28;20121;-61
2023/01/14 07:54:51;;;;;;;8.80;1.52;;;;;;;3.63;100.00;97384.63;4960749;28;20126;-61
2023/01/14 07:57:18;;;;;;;7.72;1.42;;;;;;;3.74;100.00;97378.66;4962277;28;20050;-63
2023/01/14 07:59:45;;;;;;;12.48;1.92;;;;;;;3.69;100.00;97373.09;4960101;28;20465;-63
2023/01/14 08:02:12;;;;;;;10.32;1.92;;;;;;;3.72;100.00;97372.69;4958485;28;20101;-63
2023/01/14 08:04:39;;;;;;;10.32;1.77;;;;;;;3.79;100.00;97364.63;4963229;28;20043;-62
2023/01/14 08:07:07;;;;;;;11.98;2.28;;;;;;;3.80;100.00;97362.78;4958915;28;20461;-62
2023/01/14 08:09:35;;;;;;;5.20;1.48;;;;;;;3.87;100.00;97352.91;4962037;28;20069;-63
2023/01/14 08:12:02;;;;;;;7.88;2.28;;;;;;;3.96;100.00;97357.00;4960765;28;20055;-63
2023/01/14 08:14:29;;;;;;;5.93;1.30;;;;;;;4.03;100.00;97362.34;4962240;28;20047;-62
2023/01/14 08:16:55;;;;;;;7.22;2.15;;;;;;;4.07;100.00;97362.72;4959633;28;20094;-62
2023/01/14 08:19:22;;;;;;;8.95;1.88;;;;;;;4.08;100.00;97364.38;4963910;28;20411;-63
2023/01/14 08:21:48;;;;;;;10.38;2.33;;;;;;;4.18;100.00;97359.41;4961154;28;20046;-63
2023/01/14 08:24:15;;;;;;;5.65;1.40;;;;;;;4.18;100.00;97363.94;4960878;28;20047;-63
2023/01/14 08:26:41;;;;;;;10.25;1.90;;;;;;;4.18;100.00;97370.13;4959444;28;20046;-62
2023/01/14 08:29:07;;;;;;;6.55;1.55;;;;;;;4.26;100.00;97364.53;4957375;28;20719;-63
2023/01/14 08:31:40;;;;;;;7.97;1.70;;;;;;;4.34;100.00;97365.31;4961256;28;20046;-63
2023/01/14 08:34:07;;;;;;;8.65;1.58;;;;;;;4.37;100.00;97363.06;4961187;28;20045;-64
2023/01/14 08:36:34;;;;;;;3.45;1.10;;;;;;;4.40;100.00;97353.75;4961606;28;20042;-63
2023/01/14 08:39:00;;;;;;;6.47;1.85;;;;;;;4.51;100.00;97361.16;4961556;28;20046;-63
2023/01/14 08:41:27;;;;;;;10.02;1.60;;;;;;;4.57;100.00;97367.50;4959630;28;20046;-63
2023/01/14 08:43:54;;;;;;;8.85;1.52;;;;;;;4.66;100.00;97360.88;4959619;28;20930;-63
2023/01/14 08:46:20;;;;;;;10.32;2.47;;;;;;;4.62;100.00;97353.47;4961520;28;20047;-63
2023/01/14 08:48:47;;;;;;;5.70;1.35;;;;;;;4.62;100.00;97348.94;4958499;28;20346;-63
2023/01/14 08:51:13;;;;;;;5.43;1.25;;;;;;;4.66;100.00;97357.34;4956272;28;20133;-62
2023/01/14 08:53:41;;;;;;;9.07;2.25;;;;;;;4.69;100.00;97341.66;4960470;28;20078;-63
2023/01/14 08:56:11;;;;;;;8.23;1.45;;;;;;;4.79;100.00;97351.91;4960986;28;20162;-63
2023/01/14 08:58:38;;;;;;;4.38;1.13;;;;;;;4.85;100.00;97344.88;4964654;28;20050;-62
2023/01/14 09:01:07;;;;;;;9.75;1.50;;;;;;;4.83;100.00;97344.25;4964699;28;20041;-62
2023/01/14 09:03:35;;;;;;;5.47;1.42;;;;;;;4.84;100.00;97345.91;4965795;28;20071;-62
2023/01/14 09:06:05;;;;;;;7.18;1.88;;;;;;;4.87;100.00;97337.41;4967443;28;20046;-63
2023/01/14 09:17:07;;;;;;;6.80;1.38;;;;;;;5.11;99.88;97320.75;4961494;28;20056;-63
2023/01/14 09:19:40;;;;;;;4.47;1.50;;;;;;;5.21;99.79;97326.47;4966227;28;20124;-64
2023/01/14 09:22:09;;;;;;;6.32;1.42;;;;;;;5.23;100.00;97320.88;4961938;28;20043;-63
2023/01/14 09:24:36;;;;;;;6.78;1.70;;;;;;;5.29;99.24;97317.31;4967388;28;20043;-63
2023/01/14 09:27:02;;;;;;;6.20;1.20;;;;;;;5.37;98.64;97314.34;4966719;28;20059;-62
2023/01/14 09:29:29;;;;;;;8.35;1.27;;;;;;;5.43;98.99;97318.03;4963299;28;20129;-64
2023/01/14 09:31:55;;;;;;;6.13;1.15;;;;;;;5.56;97.71;97315.22;4966378;28;20580;-64
2023/01/14 09:34:21;;;;;;;5.15;1.23;;;;;;;5.62;97.66;97315.38;4967004;28;20545;-64
2023/01/14 09:36:49;;;;;;;5.10;1.13;;;;;;;5.71;97.01;97301.44;4967107;28;20109;-63
2023/01/14 09:39:16;;;;;;;3.80;1.27;;;;;;;5.93;95.72;97301.00;4965166;28;20058;-64
2023/01/14 09:41:53;;;;;;;7.97;1.25;;;;;;;5.83;97.27;97292.66;4961610;28;20046;-63
2023/01/14 09:44:22;;;;;;;4.60;1.15;;;;;;;5.79;97.36;97296.84;4964957;28;20647;-64
2023/01/14 09:46:50;;;;;;;5.82;1.15;;;;;;;5.88;96.83;97297.34;4964849;28;20149;-64
2023/01/14 09:49:21;;;;;;;5.93;1.60;;;;;;;5.90;97.15;97303.31;4964187;28;20046;-64
2023/01/14 09:52:06;;;;;;;5.32;1.40;;;;;;;5.87;97.56;97301.91;4963935;28;20518;-63
2023/01/14 09:54:52;;;;;;;7.18;1.45;;;;;;;5.93;97.33;97297.50;4964627;28;20046;-63
2023/01/14 09:57:39;;;;;;;5.28;1.35;;;;;;;5.98;97.34;97294.97;4961333;28;20529;-62
2023/01/14 10:00:20;;;;;;;5.38;1.27;;;;;;;6.16;97.16;97296.84;4959664;28;20053;-63
2023/01/14 10:03:13;;;;;;;6.43;1.20;;;;;;;6.24;96.35;97299.22;4960908;28;20236;-62
2023/01/14 10:05:41;;;;;;;4.32;1.05;;;;;;;6.26;97.33;97299.00;4963379;28;20039;-62
2023/01/14 10:08:13;;;;;;;7.22;1.35;;;;;;;6.33;97.03;97280.94;4964572;28;20262;-62
2023/01/14 10:10:43;;;;;;;3.53;0.90;;;;;;;6.43;97.10;97279.56;4960993;28;20466;-63
2023/01/14 10:13:19;;;;;;;7.70;1.15;;;;;;;6.57;96.03;97254.13;4959283;28;20039;-63
2023/01/14 10:15:51;;;;;;;5.53;0.95;;;;;;;6.63;96.11;97212.00;4962026;28;21070;-63
2023/01/14 10:18:36;;;;;;;2.90;1.10;;;;;;;6.62;95.01;97205.00;4964291;28;20517;-62
2023/01/14 10:21:16;;;;;;;3.70;1.08;;;;;;;6.57;95.33;97191.44;4962404;28;20482;-62
2023/01/14 10:23:43;;;;;;;3.45;0.75;;;;;;;6.61;95.15;97184.53;4966160;28;20509;-63
2023/01/14 10:26:13;;;;;;;2.97;1.20;;;;;;;6.65;94.68;97193.78;4960300;28;20101;-63
2023/01/14 10:28:41;;;;;;;2.35;1.00;;;;;;;6.74;93.96;97196.94;4961364;28;20037;-62
2023/01/14 10:31:31;;;;;;;6.43;1.05;;;;;;;6.69;95.43;97194.13;4964137;28;20042;-64
2023/01/14 10:33:59;;;;;;;3.25;1.17;;;;;;;6.72;95.13;97180.22;4962630;28;20054;-64
2023/01/14 10:36:30;;;;;;;4.03;1.30;;;;;;;6.73;94.82;97169.25;4966268;28;20035;-64
2023/01/14 10:38:59;;;;;;;6.00;1.45;;;;;;;6.75;94.64;97160.94;4963257;28;20070;-63
2023/01/14 10:44:23;;;;;;;3.47;1.30;;;;;;;6.92;92.97;97144.09;4961209;28;20050;-63
2023/01/14 10:47:12;;;;;;;4.30;1.58;;;;;;;7.04;91.84;97147.59;4965574;28;20105;-64
2023/01/14 10:49:51;;;;;;;2.88;1.10;;;;;;;7.01;92.33;97138.09;4965398;28;20101;-64
2023/01/14 10:52:21;;;;;;;3.95;1.13;;;;;;;7.02;92.73;97147.00;4964272;28;20466;-64
2023/01/14 10:55:14;;;;;;;3.80;1.10;;;;;;;7.18;91.53;97134.72;4961826;28;20042;-64
2023/01/14 10:57:50;;;;;;;5.38;2.22;;;;;;;7.14;92.58;97138.91;4961603;28;20090;-64
2023/01/14 11:00:35;;;;;;;3.25;1.13;;;;;;;7.15;91.71;97122.53;4962647;28;20501;-63
2023/01/14 11:03:08;;;;;;;5.95;1.67;;;;;;;7.19;91.19;97114.78;4961157;28;20470;-62
2023/01/14 11:05:37;;;;;;;2.17;0.93;;;;;;;7.27;91.35;97102.84;4964259;28;20117;-62
2023/01/14 11:08:31;;;;;;;2.63;1.08;;;;;;;7.25;91.67;97097.72;4964369;28;20051;-62
2023/01/14 11:11:01;;;;;;;6.60;1.13;;;;;;;7.27;90.85;97086.69;4963244;28;20035;-62
2023/01/14 11:13:31;;;;;;;3.28;1.17;;;;;;;7.30;88.92;97088.94;4957618;28;20166;-62
2023/01/14 11:15:59;;;;;;;4.20;1.33;;;;;;;7.34;89.25;97092.75;4964750;28;20047;-62
2023/01/14 11:18:28;;;;;;;3.78;0.77;;;;;;;7.39;88.83;97079.41;4963825;28;20050;-64
2023/01/14 11:20:59;;;;;;;3.55;0.90;;;;;;;7.49;88.65;97080.66;4959853;28;20043;-64
2023/01/14 11:23:32;;;;;;;3.53;1.00;;;;;;;7.55;87.91;97074.31;4964498;28;20118;-64
2023/01/14 11:26:10;;;;;;;3.80;1.25;;;;;;;7.60;87.28;97084.38;4961003;28;20457;-64
2023/01/14 11:28:44;;;;;;;3.42;0.98;;;;;;;7.67;86.69;97075.09;4964821;28;20445;-64
2023/01/14 11:31:10;;;;;;;3.15;0.70;;;;;;;7.68;86.73;97065.94;4963656;28;20650;-64
2023/01/14 11:33:48;;;;;;;1.60;0.77;;;;;;;7.66;86.73;97059.16;4964599;28;20042;-62
2023/01/14 11:36:24;;;;;;;2.78;0.95;;;;;;;7.71;86.19;97043.09;4961279;28;20436;-61
2023/01/14 11:38:55;;;;;;;2.30;0.73;;;;;;;7.72;85.65;97049.28;4964611;28;20123;-61
2023/01/14 11:41:39;;;;;;;1.30;0.53;;;;;;;7.75;85.68;97044.25;4963149;28;20061;-62
2023/01/14 11:44:18;;;;;;;3.42;0.65;;;;;;;7.79;85.37;97040.03;4963441;28;20381;-62
2023/01/14 11:46:45;;;;;;;2.30;0.50;;;;;;;7.80;85.30;97032.72;4961136;28;20039;-61
2023/01/14 11:49:22;;;;;;;1.08;0.50;;;;;;;7.84;84.92;97022.28;4964124;28;20129;-61
2023/01/14 11:51:58;;;;;;;1.50;0.40;;;;;;;7.81;84.51;97021.72;4922756;28;1062882;-62
2023/01/14 11:54:33;;;;;;;1.02;0.35;;;;;;;7.86;84.32;97014.78;4964244;28;20361;-62
2023/01/14 11:57:00;;;;;;;4.25;1.13;;;;;;;7.87;84.37;97019.94;4960309;28;20078;-61
2023/01/14 11:59:28;;;;;;;3.90;0.65;;;;;;;7.95;84.57;97005.22;4964013;28;20070;-62
2023/01/14 12:02:02;;;;;;;11.13;5.93;;;;;;;7.92;83.97;97003.84;4964003;28;20101;-61
2023/01/14 12:04:57;;;;;;;2.75;1.00;;;;;;;7.89;84.43;96990.03;4961843;28;20043;-58
2023/01/14 12:07:55;;;;;;;4.30;2.08;;;;;;;7.96;83.84;96987.97;4961649;28;20055;-56
2023/01/14 12:10:27;;;;;;;13.15;7.72;;;;;;;7.86;82.63;96963.56;4960591;28;20780;-55
2023/01/14 12:18:58;;;;;;;3.42;1.17;;;;;;;7.82;83.49;96957.84;4960208;28;20051;-60
2023/01/14 12:21:34;;;;;;;11.50;6.00;;;;;;;7.78;83.01;96954.81;4961071;28;20035;-57
2023/01/14 12:24:13;;;;;;;2.38;1.05;;;;;;;7.75;82.83;96935.63;4956486;28;20062;-58
2023/01/14 12:26:44;;;;;;;4.32;1.98;;;;;;;7.77;83.77;96922.72;4959233;28;20038;-57